ENGM/OSL METAR and TAF weather

Enter ICAO airport designator
Station Type Date Time Source
ENGM METAR 2020/08/06 00:50 UTC NOAA

ENGM 060050Z 18007KT 9999 FEW005 BKN010 15/15 Q1012


Station Type Date Time Source
ENGM Decoded METAR 2020/08/06 00:50 UTC NOAA

Oslo / Gardermoen, Norway (ENGM) 60-12N 011-05E 204M
Aug 05, 2020 - 08:50 PM EDT / 2020.08.06 0050 UTC
Wind: from the S (180 degrees) at 8 MPH (7 KT):0
Visibility: greater than 7 mile(s):0
Sky conditions: mostly cloudy
Temperature: 59 F (15 C)
Dew Point: 59 F (15 C)
Relative Humidity: 100%
Pressure (altimeter): 29.88 in. Hg (1012 hPa)
ob: ENGM 060050Z 18007KT 9999 FEW005 BKN010 15/15 Q1012
cycle: 1

Station Type Date Time Source
ENGM TAF 2020/08/06 00:00 UTC NOAA

TAF ENGM 052300Z 0600/0624 18008KT 8000 -RADZ BKN003
TEMPO 0600/0612 2000 BR SCT003 BKN006
BECMG 0609/0612 BKN015

Example: see airport list